LYX808 SEQM-SKBO
Flight info
| Callsign | LYX808 |
|---|---|
| Flight time | 1h 11m |
| Altitude | 37000 |
| Route | SEQM/36 N0451F370 ARNO3A ARNOK UP533 BOKAN DCT ESARO DCT GIR GIR5E SKBO/14R |
| Aircraft | B38M/M-SDE1FGHILORVWXY/HB1 |
Departure
| Time | 2026-04-30 20:45 |
|---|---|
| Airport | Mariscal Sucre International Airport (SEQM) |
Arrival
| Time | 2026-04-30 21:56 |
|---|---|
| Airport | El Dorado International Airport (SKBO) |
| Time | Latitude | Longitude | Altitude | Speed | Heading |
|---|---|---|---|---|---|
| 2026-04-30 19:50 | -0.12280 | -78.35778 | 7843 ft | 0 kts | 88° |
| 2026-04-30 20:38 | -0.12280 | -78.35777 | 7843 ft | 0 kts | 92° |
| 2026-04-30 20:39 | -0.12285 | -78.35774 | 7843 ft | 3 kts | 139° |
| 2026-04-30 20:39 | -0.12318 | -78.35765 | 7834 ft | 7 kts | 175° |
| 2026-04-30 20:39 | -0.12356 | -78.35738 | 7842 ft | 7 kts | 107° |
| 2026-04-30 20:40 | -0.12385 | -78.35623 | 7842 ft | 10 kts | 153° |
| 2026-04-30 20:40 | -0.12452 | -78.35613 | 7844 ft | 10 kts | 177° |
| 2026-04-30 20:40 | -0.12521 | -78.35610 | 7850 ft | 10 kts | 178° |
| 2026-04-30 20:41 | -0.12725 | -78.35601 | 7863 ft | 17 kts | 178° |
| 2026-04-30 20:41 | -0.12857 | -78.35596 | 7870 ft | 21 kts | 178° |
| 2026-04-30 20:41 | -0.13018 | -78.35589 | 7876 ft | 24 kts | 177° |
| 2026-04-30 20:41 | -0.13178 | -78.35581 | 7884 ft | 21 kts | 178° |
| 2026-04-30 20:42 | -0.13320 | -78.35576 | 7887 ft | 20 kts | 178° |
| 2026-04-30 20:42 | -0.13461 | -78.35571 | 7889 ft | 21 kts | 178° |
| 2026-04-30 20:42 | -0.13753 | -78.35559 | 7899 ft | 20 kts | 179° |
| 2026-04-30 20:43 | -0.13888 | -78.35554 | 7906 ft | 19 kts | 178° |
| 2026-04-30 20:43 | -0.14014 | -78.35547 | 7910 ft | 17 kts | 176° |
| 2026-04-30 20:43 | -0.14124 | -78.35542 | 7919 ft | 15 kts | 178° |
| 2026-04-30 20:44 | -0.14258 | -78.35473 | 7923 ft | 11 kts | 96° |
| 2026-04-30 20:44 | -0.14241 | -78.35391 | 7920 ft | 14 kts | 54° |
| 2026-04-30 20:44 | -0.13672 | -78.35391 | 7895 ft | 99 kts | 358° |
| 2026-04-30 20:45 | -0.11537 | -78.35491 | 8029 ft | 189 kts | 356° |
| 2026-04-30 20:45 | -0.10232 | -78.35560 | 8831 ft | 190 kts | 356° |
| 2026-04-30 20:45 | -0.08883 | -78.35626 | 9468 ft | 201 kts | 354° |
| 2026-04-30 20:46 | -0.04500 | -78.36898 | 11184 ft | 246 kts | 342° |
| 2026-04-30 20:46 | -0.02838 | -78.37483 | 11801 ft | 263 kts | 342° |
| 2026-04-30 20:47 | 0.00841 | -78.38762 | 12999 ft | 296 kts | 343° |
| 2026-04-30 20:47 | 0.02861 | -78.39458 | 13444 ft | 317 kts | 343° |
| 2026-04-30 20:48 | 0.07237 | -78.40964 | 14612 ft | 344 kts | 343° |
| 2026-04-30 20:48 | 0.09517 | -78.41749 | 15323 ft | 349 kts | 342° |
| 2026-04-30 20:48 | 0.11840 | -78.42436 | 16062 ft | 350 kts | 353° |
| 2026-04-30 20:48 | 0.14268 | -78.42416 | 16746 ft | 349 kts | 13° |
| 2026-04-30 20:49 | 0.16511 | -78.41600 | 17396 ft | 350 kts | 32° |
| 2026-04-30 20:49 | 0.18456 | -78.40140 | 18090 ft | 351 kts | 43° |
| 2026-04-30 20:49 | 0.20309 | -78.38524 | 18654 ft | 355 kts | 44° |
| 2026-04-30 20:50 | 0.24003 | -78.35182 | 19801 ft | 361 kts | 45° |
| 2026-04-30 20:50 | 0.25853 | -78.33478 | 20438 ft | 362 kts | 45° |
| 2026-04-30 20:50 | 0.27709 | -78.31758 | 20985 ft | 366 kts | 45° |
| 2026-04-30 20:50 | 0.29579 | -78.30019 | 21549 ft | 368 kts | 45° |
| 2026-04-30 20:51 | 0.31461 | -78.28269 | 22110 ft | 371 kts | 45° |
| 2026-04-30 20:51 | 0.35243 | -78.24747 | 23185 ft | 376 kts | 44° |
| 2026-04-30 20:51 | 0.37167 | -78.22957 | 23710 ft | 379 kts | 44° |
| 2026-04-30 20:52 | 0.39105 | -78.21151 | 24107 ft | 383 kts | 44° |
| 2026-04-30 20:52 | 0.41065 | -78.19327 | 24511 ft | 386 kts | 44° |
| 2026-04-30 20:52 | 0.45041 | -78.15626 | 25297 ft | 394 kts | 44° |
| 2026-04-30 20:53 | 0.47049 | -78.13756 | 25687 ft | 397 kts | 44° |
| 2026-04-30 20:53 | 0.49083 | -78.11864 | 26072 ft | 401 kts | 43° |
| 2026-04-30 20:53 | 0.51289 | -78.10140 | 26446 ft | 405 kts | 36° |
| 2026-04-30 20:54 | 0.55878 | -78.06780 | 27213 ft | 412 kts | 37° |
| 2026-04-30 20:54 | 0.58183 | -78.05061 | 27589 ft | 415 kts | 37° |
| 2026-04-30 20:54 | 0.60507 | -78.03322 | 27944 ft | 419 kts | 37° |
| 2026-04-30 20:55 | 0.65208 | -77.99795 | 28673 ft | 425 kts | 37° |
| 2026-04-30 20:55 | 0.67590 | -77.98008 | 29008 ft | 429 kts | 37° |
| 2026-04-30 20:55 | 0.69986 | -77.96210 | 29383 ft | 432 kts | 37° |
| 2026-04-30 20:56 | 0.74834 | -77.92572 | 30121 ft | 439 kts | 37° |
| 2026-04-30 20:56 | 0.77264 | -77.90748 | 30431 ft | 442 kts | 37° |
| 2026-04-30 20:56 | 0.82115 | -77.86906 | 31087 ft | 447 kts | 40° |
| 2026-04-30 20:57 | 0.84477 | -77.84866 | 31407 ft | 450 kts | 40° |
| 2026-04-30 20:57 | 0.86858 | -77.82829 | 31735 ft | 452 kts | 39° |
| 2026-04-30 20:57 | 0.89256 | -77.80787 | 32052 ft | 454 kts | 39° |
| 2026-04-30 20:58 | 0.94091 | -77.76674 | 32649 ft | 459 kts | 39° |
| 2026-04-30 20:58 | 0.96528 | -77.74601 | 32944 ft | 461 kts | 39° |
| 2026-04-30 20:58 | 0.98976 | -77.72518 | 33228 ft | 463 kts | 39° |
| 2026-04-30 20:58 | 1.01406 | -77.70451 | 33497 ft | 464 kts | 39° |
| 2026-04-30 20:59 | 1.06338 | -77.66256 | 34003 ft | 468 kts | 39° |
| 2026-04-30 20:59 | 1.08830 | -77.64136 | 34226 ft | 470 kts | 39° |
| 2026-04-30 21:00 | 1.13828 | -77.59885 | 34609 ft | 474 kts | 39° |
| 2026-04-30 21:00 | 1.18867 | -77.55597 | 35069 ft | 475 kts | 39° |
| 2026-04-30 21:01 | 1.23902 | -77.51314 | 35628 ft | 475 kts | 39° |
| 2026-04-30 21:01 | 1.26421 | -77.49171 | 35958 ft | 475 kts | 38° |
| 2026-04-30 21:01 | 1.31456 | -77.44888 | 36514 ft | 476 kts | 38° |
| 2026-04-30 21:02 | 1.33977 | -77.42742 | 36797 ft | 476 kts | 38° |
| 2026-04-30 21:02 | 1.36466 | -77.40624 | 36927 ft | 477 kts | 38° |
| 2026-04-30 21:02 | 1.38997 | -77.38471 | 36899 ft | 476 kts | 38° |
| 2026-04-30 21:03 | 1.44026 | -77.34191 | 36907 ft | 475 kts | 38° |
| 2026-04-30 21:03 | 1.49058 | -77.29908 | 36899 ft | 475 kts | 38° |
| 2026-04-30 21:04 | 1.54106 | -77.25612 | 36884 ft | 476 kts | 38° |
| 2026-04-30 21:04 | 1.61644 | -77.19197 | 36884 ft | 476 kts | 38° |
| 2026-04-30 21:05 | 1.66679 | -77.14911 | 36875 ft | 476 kts | 38° |
| 2026-04-30 21:05 | 1.71720 | -77.10620 | 36884 ft | 476 kts | 38° |
| 2026-04-30 21:06 | 1.76772 | -77.06318 | 36886 ft | 476 kts | 38° |
| 2026-04-30 21:06 | 1.81822 | -77.02019 | 36887 ft | 476 kts | 38° |
| 2026-04-30 21:07 | 1.86869 | -76.97722 | 36885 ft | 477 kts | 38° |
| 2026-04-30 21:07 | 1.91888 | -76.93448 | 36866 ft | 477 kts | 38° |
| 2026-04-30 21:08 | 1.96946 | -76.89142 | 36894 ft | 478 kts | 38° |
| 2026-04-30 21:08 | 2.02006 | -76.84831 | 36899 ft | 478 kts | 38° |
| 2026-04-30 21:09 | 2.07071 | -76.80518 | 36906 ft | 478 kts | 38° |
| 2026-04-30 21:09 | 2.12134 | -76.76204 | 36910 ft | 478 kts | 38° |
| 2026-04-30 21:10 | 2.17210 | -76.71881 | 36936 ft | 478 kts | 38° |
| 2026-04-30 21:10 | 2.22270 | -76.67570 | 36958 ft | 478 kts | 38° |
| 2026-04-30 21:11 | 2.27333 | -76.63256 | 36977 ft | 478 kts | 38° |
| 2026-04-30 21:11 | 2.32362 | -76.58970 | 36982 ft | 477 kts | 38° |
| 2026-04-30 21:12 | 2.37410 | -76.54669 | 36993 ft | 477 kts | 38° |
| 2026-04-30 21:12 | 2.42463 | -76.50362 | 36999 ft | 477 kts | 38° |
| 2026-04-30 21:13 | 2.46663 | -76.46782 | 36961 ft | 477 kts | 38° |
| 2026-04-30 21:13 | 2.51709 | -76.42481 | 36958 ft | 476 kts | 38° |
| 2026-04-30 21:14 | 2.56754 | -76.38181 | 36981 ft | 477 kts | 38° |
| 2026-04-30 21:14 | 2.61806 | -76.33871 | 36959 ft | 477 kts | 38° |
| 2026-04-30 21:15 | 2.66853 | -76.29569 | 36963 ft | 477 kts | 38° |
| 2026-04-30 21:15 | 2.71906 | -76.25260 | 36939 ft | 477 kts | 38° |
| 2026-04-30 21:16 | 2.76920 | -76.20984 | 36975 ft | 477 kts | 38° |
| 2026-04-30 21:16 | 2.81965 | -76.16680 | 36963 ft | 477 kts | 38° |
| 2026-04-30 21:17 | 2.86963 | -76.12302 | 36954 ft | 478 kts | 42° |
| 2026-04-30 21:17 | 2.91766 | -76.07689 | 36957 ft | 477 kts | 41° |
| 2026-04-30 21:18 | 2.96593 | -76.03105 | 36965 ft | 479 kts | 41° |
| 2026-04-30 21:18 | 3.01424 | -75.98522 | 36981 ft | 479 kts | 41° |
| 2026-04-30 21:19 | 3.06460 | -75.94186 | 36950 ft | 474 kts | 28° |
| 2026-04-30 21:19 | 3.12176 | -75.90886 | 36964 ft | 475 kts | 28° |
| 2026-04-30 21:20 | 3.17862 | -75.87499 | 36991 ft | 477 kts | 28° |
| 2026-04-30 21:20 | 3.23518 | -75.84117 | 36972 ft | 476 kts | 28° |
| 2026-04-30 21:21 | 3.29218 | -75.80709 | 36975 ft | 478 kts | 28° |
| 2026-04-30 21:22 | 3.37765 | -75.75599 | 36929 ft | 477 kts | 28° |
| 2026-04-30 21:23 | 3.49164 | -75.68780 | 36923 ft | 476 kts | 28° |
| 2026-04-30 21:23 | 3.57685 | -75.63682 | 36916 ft | 477 kts | 28° |
| 2026-04-30 21:24 | 3.63379 | -75.60275 | 36907 ft | 477 kts | 27° |
| 2026-04-30 21:24 | 3.69081 | -75.56862 | 36914 ft | 476 kts | 28° |
| 2026-04-30 21:25 | 3.77625 | -75.51747 | 36920 ft | 476 kts | 28° |
| 2026-04-30 21:26 | 3.86154 | -75.46640 | 36748 ft | 474 kts | 28° |
| 2026-04-30 21:26 | 3.88944 | -75.44969 | 36295 ft | 469 kts | 28° |
| 2026-04-30 21:27 | 3.94519 | -75.41630 | 35151 ft | 466 kts | 29° |
| 2026-04-30 21:27 | 3.97295 | -75.39966 | 34636 ft | 463 kts | 29° |
| 2026-04-30 21:27 | 4.00056 | -75.38314 | 34134 ft | 460 kts | 29° |
| 2026-04-30 21:28 | 4.05541 | -75.35027 | 32985 ft | 457 kts | 29° |
| 2026-04-30 21:28 | 4.08258 | -75.33399 | 32467 ft | 454 kts | 30° |
| 2026-04-30 21:28 | 4.13651 | -75.30168 | 31451 ft | 449 kts | 30° |
| 2026-04-30 21:29 | 4.16322 | -75.28567 | 30936 ft | 446 kts | 30° |
| 2026-04-30 21:29 | 4.24227 | -75.23828 | 29360 ft | 440 kts | 30° |
| 2026-04-30 21:30 | 4.29431 | -75.20708 | 28378 ft | 433 kts | 31° |
| 2026-04-30 21:31 | 4.37107 | -75.16104 | 26995 ft | 422 kts | 31° |
| 2026-04-30 21:31 | 4.42109 | -75.13105 | 26113 ft | 416 kts | 32° |
| 2026-04-30 21:32 | 4.47036 | -75.10150 | 25255 ft | 409 kts | 32° |
| 2026-04-30 21:32 | 4.49474 | -75.08687 | 24836 ft | 407 kts | 32° |
| 2026-04-30 21:32 | 4.51889 | -75.07238 | 24421 ft | 404 kts | 32° |
| 2026-04-30 21:32 | 4.54265 | -75.05812 | 24017 ft | 402 kts | 33° |
| 2026-04-30 21:33 | 4.56656 | -75.04377 | 23604 ft | 399 kts | 33° |
| 2026-04-30 21:33 | 4.61391 | -75.01536 | 22708 ft | 394 kts | 33° |
| 2026-04-30 21:33 | 4.63737 | -75.00128 | 22298 ft | 390 kts | 33° |
| 2026-04-30 21:34 | 4.66052 | -74.98739 | 21911 ft | 386 kts | 33° |
| 2026-04-30 21:34 | 4.70624 | -74.95994 | 21125 ft | 380 kts | 33° |
| 2026-04-30 21:34 | 4.72884 | -74.94637 | 20744 ft | 377 kts | 33° |
| 2026-04-30 21:35 | 4.75124 | -74.93292 | 20348 ft | 374 kts | 33° |
| 2026-04-30 21:35 | 4.77348 | -74.91956 | 19964 ft | 371 kts | 33° |
| 2026-04-30 21:35 | 4.79554 | -74.90632 | 19584 ft | 368 kts | 33° |
| 2026-04-30 21:35 | 4.81747 | -74.89314 | 19203 ft | 366 kts | 33° |
| 2026-04-30 21:36 | 4.83924 | -74.88007 | 18826 ft | 363 kts | 33° |
| 2026-04-30 21:36 | 4.86084 | -74.86710 | 18450 ft | 361 kts | 33° |
| 2026-04-30 21:37 | 4.92502 | -74.82854 | 16998 ft | 360 kts | 33° |
| 2026-04-30 21:37 | 4.94667 | -74.81590 | 16597 ft | 358 kts | 28° |
| 2026-04-30 21:37 | 4.96972 | -74.80755 | 16596 ft | 346 kts | 19° |
| 2026-04-30 21:37 | 4.99225 | -74.80074 | 16588 ft | 332 kts | 20° |
| 2026-04-30 21:38 | 5.01417 | -74.79396 | 16574 ft | 328 kts | 20° |
| 2026-04-30 21:38 | 5.03591 | -74.78718 | 16558 ft | 327 kts | 20° |
| 2026-04-30 21:38 | 5.05760 | -74.78038 | 16548 ft | 326 kts | 20° |
| 2026-04-30 21:38 | 5.07933 | -74.77356 | 16528 ft | 327 kts | 20° |
| 2026-04-30 21:39 | 5.10113 | -74.76659 | 16544 ft | 329 kts | 24° |
| 2026-04-30 21:39 | 5.12047 | -74.75497 | 16520 ft | 323 kts | 44° |
| 2026-04-30 21:39 | 5.13710 | -74.73972 | 16540 ft | 324 kts | 45° |
| 2026-04-30 21:39 | 5.15373 | -74.72445 | 16526 ft | 324 kts | 45° |
| 2026-04-30 21:40 | 5.17025 | -74.70910 | 16540 ft | 324 kts | 45° |
| 2026-04-30 21:40 | 5.18674 | -74.69364 | 16541 ft | 324 kts | 45° |
| 2026-04-30 21:40 | 5.20319 | -74.67813 | 16545 ft | 324 kts | 46° |
| 2026-04-30 21:40 | 5.21964 | -74.66261 | 16557 ft | 324 kts | 46° |
| 2026-04-30 21:41 | 5.23583 | -74.64729 | 16565 ft | 324 kts | 46° |
| 2026-04-30 21:41 | 5.24984 | -74.62988 | 16543 ft | 318 kts | 65° |
| 2026-04-30 21:41 | 5.25823 | -74.60937 | 16572 ft | 318 kts | 70° |
| 2026-04-30 21:41 | 5.26636 | -74.58874 | 16578 ft | 318 kts | 70° |
| 2026-04-30 21:42 | 5.27438 | -74.56799 | 16592 ft | 319 kts | 71° |
| 2026-04-30 21:42 | 5.28229 | -74.54725 | 16551 ft | 318 kts | 71° |
| 2026-04-30 21:42 | 5.29015 | -74.52647 | 16623 ft | 319 kts | 71° |
| 2026-04-30 21:42 | 5.29798 | -74.50565 | 16627 ft | 319 kts | 71° |
| 2026-04-30 21:43 | 5.30574 | -74.48487 | 16577 ft | 318 kts | 73° |
| 2026-04-30 21:43 | 5.30910 | -74.46322 | 16613 ft | 314 kts | 93° |
| 2026-04-30 21:43 | 5.30775 | -74.44127 | 16612 ft | 315 kts | 95° |
| 2026-04-30 21:43 | 5.30634 | -74.41934 | 16628 ft | 315 kts | 95° |
| 2026-04-30 21:44 | 5.30479 | -74.39738 | 16638 ft | 316 kts | 95° |
| 2026-04-30 21:44 | 5.30309 | -74.37540 | 16595 ft | 315 kts | 97° |
| 2026-04-30 21:44 | 5.29697 | -74.35469 | 16428 ft | 310 kts | 118° |
| 2026-04-30 21:44 | 5.28397 | -74.33769 | 16268 ft | 312 kts | 137° |
| 2026-04-30 21:45 | 5.26575 | -74.32599 | 16080 ft | 315 kts | 156° |
| 2026-04-30 21:45 | 5.24448 | -74.32101 | 15868 ft | 314 kts | 175° |
| 2026-04-30 21:45 | 5.22293 | -74.32349 | 15654 ft | 312 kts | 191° |
| 2026-04-30 21:45 | 5.20211 | -74.32883 | 15436 ft | 307 kts | 192° |
| 2026-04-30 21:46 | 5.18159 | -74.33447 | 15216 ft | 302 kts | 193° |
| 2026-04-30 21:46 | 5.16166 | -74.34020 | 15028 ft | 294 kts | 193° |
| 2026-04-30 21:46 | 5.14227 | -74.34590 | 14831 ft | 287 kts | 193° |
| 2026-04-30 21:46 | 5.12324 | -74.35161 | 14626 ft | 282 kts | 194° |
| 2026-04-30 21:47 | 5.10458 | -74.35724 | 14430 ft | 277 kts | 194° |
| 2026-04-30 21:47 | 5.08640 | -74.36276 | 14209 ft | 270 kts | 194° |
| 2026-04-30 21:47 | 5.06865 | -74.36816 | 14062 ft | 262 kts | 194° |
| 2026-04-30 21:47 | 5.05160 | -74.37336 | 13889 ft | 258 kts | 194° |
| 2026-04-30 21:48 | 5.03440 | -74.37861 | 13747 ft | 259 kts | 194° |
| 2026-04-30 21:48 | 5.01722 | -74.38385 | 13524 ft | 258 kts | 194° |
| 2026-04-30 21:48 | 5.00017 | -74.38904 | 13300 ft | 253 kts | 194° |
| 2026-04-30 21:48 | 4.98351 | -74.39413 | 13121 ft | 247 kts | 194° |
| 2026-04-30 21:49 | 4.96725 | -74.39909 | 12946 ft | 241 kts | 194° |
| 2026-04-30 21:49 | 4.95162 | -74.40385 | 12815 ft | 231 kts | 194° |
| 2026-04-30 21:49 | 4.93616 | -74.40756 | 12659 ft | 226 kts | 181° |
| 2026-04-30 21:49 | 4.92087 | -74.40548 | 12666 ft | 221 kts | 158° |
| 2026-04-30 21:50 | 4.90764 | -74.39788 | 12718 ft | 219 kts | 139° |
| 2026-04-30 21:50 | 4.89707 | -74.38724 | 12765 ft | 218 kts | 131° |
| 2026-04-30 21:50 | 4.88701 | -74.37590 | 12759 ft | 218 kts | 135° |
| 2026-04-30 21:50 | 4.87390 | -74.36858 | 12740 ft | 219 kts | 163° |
| 2026-04-30 21:51 | 4.85948 | -74.36352 | 12712 ft | 222 kts | 147° |
| 2026-04-30 21:51 | 4.84864 | -74.35295 | 12482 ft | 216 kts | 126° |
| 2026-04-30 21:51 | 4.83988 | -74.34102 | 12237 ft | 210 kts | 127° |
| 2026-04-30 21:51 | 4.83125 | -74.32948 | 11991 ft | 204 kts | 127° |
| 2026-04-30 21:52 | 4.82277 | -74.31818 | 11773 ft | 202 kts | 127° |
| 2026-04-30 21:52 | 4.81444 | -74.30710 | 11540 ft | 196 kts | 127° |
| 2026-04-30 21:52 | 4.80630 | -74.29629 | 11310 ft | 193 kts | 127° |
| 2026-04-30 21:52 | 4.79828 | -74.28563 | 11093 ft | 191 kts | 127° |
| 2026-04-30 21:53 | 4.79028 | -74.27502 | 10881 ft | 187 kts | 127° |
| 2026-04-30 21:53 | 4.78259 | -74.26481 | 10673 ft | 181 kts | 126° |
| 2026-04-30 21:53 | 4.77510 | -74.25483 | 10463 ft | 177 kts | 126° |
| 2026-04-30 21:53 | 4.76789 | -74.24498 | 10210 ft | 171 kts | 126° |
| 2026-04-30 21:54 | 4.76117 | -74.23561 | 10035 ft | 167 kts | 126° |
| 2026-04-30 21:54 | 4.75429 | -74.22638 | 9842 ft | 165 kts | 127° |
| 2026-04-30 21:54 | 4.74729 | -74.21735 | 9635 ft | 162 kts | 127° |
| 2026-04-30 21:54 | 4.74043 | -74.20840 | 9439 ft | 165 kts | 127° |
| 2026-04-30 21:55 | 4.73341 | -74.19921 | 9242 ft | 166 kts | 127° |
| 2026-04-30 21:55 | 4.72646 | -74.18997 | 8977 ft | 166 kts | 128° |
| 2026-04-30 21:55 | 4.71952 | -74.18085 | 8730 ft | 164 kts | 128° |
| 2026-04-30 21:55 | 4.71258 | -74.17177 | 8511 ft | 162 kts | 129° |
| 2026-04-30 21:56 | 4.70599 | -74.16316 | 8368 ft | 146 kts | 128° |
| 2026-04-30 21:56 | 4.70084 | -74.15644 | 8366 ft | 91 kts | 127° |
| 2026-04-30 21:56 | 4.69792 | -74.15260 | 8366 ft | 42 kts | 127° |
| 2026-04-30 21:56 | 4.69737 | -74.15159 | 8367 ft | 14 kts | 98° |
| 2026-04-30 21:57 | 4.69721 | -74.15060 | 8366 ft | 15 kts | 100° |
| 2026-04-30 21:57 | 4.69719 | -74.14957 | 8366 ft | 15 kts | 69° |
| 2026-04-30 21:57 | 4.69792 | -74.14880 | 8367 ft | 15 kts | 37° |
| 2026-04-30 21:57 | 4.69879 | -74.14814 | 8367 ft | 16 kts | 37° |
| 2026-04-30 21:58 | 4.69970 | -74.14747 | 8367 ft | 17 kts | 38° |
| 2026-04-30 21:58 | 4.70062 | -74.14674 | 8368 ft | 17 kts | 37° |
| 2026-04-30 21:58 | 4.70161 | -74.14603 | 8369 ft | 19 kts | 36° |
| 2026-04-30 21:58 | 4.70271 | -74.14518 | 8369 ft | 21 kts | 37° |
| 2026-04-30 21:59 | 4.70357 | -74.14454 | 8369 ft | 9 kts | 37° |
| 2026-04-30 21:59 | 4.70383 | -74.14424 | 8369 ft | 9 kts | 67° |
| 2026-04-30 21:59 | 4.70371 | -74.14367 | 8370 ft | 9 kts | 127° |
| 2026-04-30 22:00 | 4.70236 | -74.14215 | 8369 ft | 13 kts | 164° |
| 2026-04-30 22:00 | 4.70101 | -74.14270 | 8370 ft | 0 kts | 197° |